createdAt,value
2022-10-31T00:00:58.377Z,9.71
2022-10-31T00:06:02.737Z,9.66
2022-10-31T00:11:04.719Z,9.70
2022-10-31T00:16:06.567Z,9.68
2022-10-31T00:21:08.412Z,9.75
2022-10-31T00:26:10.214Z,9.70
2022-10-31T00:31:13.243Z,9.70
2022-10-31T00:36:17.775Z,9.67
2022-10-31T00:41:19.498Z,9.74
2022-10-31T00:46:21.205Z,9.79
2022-10-31T00:51:22.935Z,9.75
2022-10-31T00:56:24.637Z,9.71
2022-10-31T01:01:26.360Z,9.76
2022-10-31T01:06:28.096Z,9.71
2022-10-31T01:11:29.761Z,9.60
2022-10-31T01:16:31.428Z,9.60
2022-10-31T01:21:33.531Z,9.62
2022-10-31T01:26:35.236Z,9.60
2022-10-31T01:31:40.045Z,9.62
2022-10-31T01:36:42.259Z,9.55
2022-10-31T01:41:46.701Z,9.64
2022-10-31T01:47:13.876Z,9.62
2022-10-31T01:52:27.756Z,9.71
2022-10-31T01:57:31.898Z,9.67
2022-10-31T02:03:07.563Z,9.57
2022-10-31T02:08:24.246Z,9.54
2022-10-31T02:13:27.033Z,9.61
2022-10-31T02:18:31.410Z,9.61
2022-10-31T02:24:10.413Z,9.63
2022-10-31T02:29:24.112Z,9.59
2022-10-31T02:34:38.896Z,9.59
2022-10-31T02:40:06.162Z,9.60
2022-10-31T02:45:28.735Z,9.64
2022-10-31T02:50:36.231Z,9.69
2022-10-31T02:55:37.830Z,9.62
2022-10-31T03:00:58.739Z,9.58
2022-10-31T03:06:15.565Z,9.39
2022-10-31T03:11:23.143Z,9.50
2022-10-31T03:16:46.517Z,9.45
2022-10-31T03:22:03.381Z,9.37
2022-10-31T03:27:08.761Z,9.43
2022-10-31T03:32:18.224Z,9.27
2022-10-31T03:37:21.809Z,9.26
2022-10-31T03:42:26.597Z,9.38
2022-10-31T03:47:28.577Z,9.45
2022-10-31T03:52:40.423Z,9.43
2022-10-31T03:58:10.281Z,9.40
2022-10-31T04:03:17.769Z,9.38
2022-10-31T04:08:24.146Z,9.11
2022-10-31T04:13:30.208Z,9.12
2022-10-31T04:18:31.867Z,9.14
2022-10-31T04:23:35.188Z,9.11
2022-10-31T04:28:36.879Z,9.06
2022-10-31T04:33:39.359Z,9.15
2022-10-31T04:38:41.123Z,9.27
2022-10-31T04:43:42.778Z,9.43
2022-10-31T04:48:44.410Z,9.52
2022-10-31T04:53:46.067Z,9.60
2022-10-31T04:58:47.744Z,9.73
2022-10-31T05:03:49.419Z,9.80
2022-10-31T05:08:51.687Z,9.75
2022-10-31T05:13:53.393Z,9.77
2022-10-31T05:18:55.061Z,9.80
2022-10-31T05:23:56.728Z,9.76
2022-10-31T05:28:58.404Z,9.76
2022-10-31T05:34:00.273Z,9.77
2022-10-31T05:39:01.972Z,9.60
2022-10-31T05:44:03.688Z,9.59
2022-10-31T05:49:05.365Z,9.61
2022-10-31T05:54:16.341Z,9.55
2022-10-31T05:59:18.022Z,9.53
2022-10-31T06:04:19.756Z,9.53
2022-10-31T06:09:21.443Z,9.60
2022-10-31T06:14:23.083Z,9.55
2022-10-31T06:19:24.768Z,9.53
2022-10-31T06:24:26.508Z,9.56
2022-10-31T06:29:28.165Z,9.58
2022-10-31T06:34:29.826Z,9.63
2022-10-31T06:39:31.504Z,9.61
2022-10-31T06:44:33.722Z,9.68
2022-10-31T06:49:35.367Z,9.57
2022-10-31T06:54:36.986Z,9.65
2022-10-31T06:59:38.633Z,9.73
2022-10-31T07:04:40.298Z,9.86
2022-10-31T07:09:42.199Z,9.99
2022-10-31T07:14:43.837Z,9.99
2022-10-31T07:19:45.500Z,10.02
2022-10-31T07:24:47.100Z,10.07
2022-10-31T07:29:48.789Z,10.00
2022-10-31T07:34:50.448Z,9.91
2022-10-31T07:39:52.102Z,10.05
2022-10-31T07:44:56.754Z,10.09
2022-10-31T07:49:59.434Z,10.20
2022-10-31T07:55:01.251Z,10.13
2022-10-31T08:00:04.513Z,10.34
2022-10-31T08:05:06.572Z,10.34
2022-10-31T08:10:08.325Z,10.29
2022-10-31T08:15:10.385Z,10.44
2022-10-31T08:20:12.046Z,10.54
2022-10-31T08:25:13.790Z,10.72
2022-10-31T08:30:15.443Z,10.83
2022-10-31T08:35:17.114Z,11.02
2022-10-31T08:40:18.788Z,11.34
2022-10-31T08:45:20.455Z,11.54
2022-10-31T08:50:22.104Z,11.65
2022-10-31T08:55:23.794Z,11.74
2022-10-31T09:00:26.339Z,11.69
2022-10-31T09:05:28.847Z,12.00
2022-10-31T09:10:57.007Z,12.03
2022-10-31T09:15:59.745Z,12.17
2022-10-31T09:21:01.970Z,12.24
2022-10-31T09:26:03.738Z,12.33
2022-10-31T09:31:05.384Z,12.58
2022-10-31T09:36:07.100Z,12.47
2022-10-31T09:41:25.203Z,12.62
2022-10-31T09:47:06.190Z,12.77
2022-10-31T09:52:39.479Z,12.87
2022-10-31T09:57:42.834Z,13.04
2022-10-31T10:03:29.113Z,13.21
2022-10-31T10:08:34.332Z,13.33
2022-10-31T10:13:57.645Z,13.28
2022-10-31T10:19:21.067Z,13.50
2022-10-31T10:24:51.783Z,13.71
2022-10-31T10:30:08.720Z,13.74
2022-10-31T10:35:22.514Z,13.78
2022-10-31T10:40:29.358Z,13.82
2022-10-31T10:45:56.671Z,14.00
2022-10-31T10:51:04.847Z,14.16
2022-10-31T10:56:28.420Z,13.95
2022-10-31T11:01:32.748Z,14.26
2022-10-31T11:06:34.520Z,14.24
2022-10-31T11:11:39.762Z,14.55
2022-10-31T11:16:46.819Z,14.79
2022-10-31T11:21:54.173Z,15.02
2022-10-31T11:27:23.769Z,14.95
2022-10-31T11:32:28.579Z,14.94
2022-10-31T11:37:36.282Z,14.99
2022-10-31T11:42:52.657Z,15.22
2022-10-31T11:47:59.787Z,15.36
2022-10-31T11:53:36.353Z,15.33
2022-10-31T11:58:58.771Z,15.47
2022-10-31T12:04:08.230Z,15.71
2022-10-31T12:09:25.165Z,15.84
2022-10-31T12:14:58.296Z,15.79
2022-10-31T12:20:44.211Z,15.71
2022-10-31T12:26:07.395Z,15.85
2022-10-31T12:31:32.676Z,16.02
2022-10-31T12:36:47.418Z,15.97
2022-10-31T12:42:28.670Z,16.22
2022-10-31T12:48:08.217Z,16.18
2022-10-31T12:53:38.225Z,16.36
2022-10-31T12:58:54.159Z,16.49
2022-10-31T13:04:14.118Z,16.52
2022-10-31T13:09:21.581Z,16.52
2022-10-31T13:14:43.103Z,16.55
2022-10-31T13:19:51.187Z,16.59
2022-10-31T13:25:12.249Z,16.60
2022-10-31T13:30:17.632Z,16.75
2022-10-31T13:35:29.551Z,16.70
2022-10-31T13:41:01.440Z,16.67
2022-10-31T13:46:49.877Z,16.77
2022-10-31T13:51:55.734Z,16.93
2022-10-31T13:56:58.599Z,16.91
2022-10-31T14:02:27.273Z,16.90
2022-10-31T14:07:33.641Z,16.91
2022-10-31T14:12:42.998Z,16.91
2022-10-31T14:18:05.162Z,16.86
2022-10-31T14:23:34.830Z,16.82
2022-10-31T14:28:37.774Z,16.76
2022-10-31T14:33:43.881Z,16.78
2022-10-31T14:39:06.452Z,16.64
2022-10-31T14:44:35.236Z,16.63
2022-10-31T14:49:58.568Z,16.66
2022-10-31T14:55:06.400Z,16.62
2022-10-31T15:00:16.431Z,16.52
2022-10-31T15:05:19.273Z,16.38
2022-10-31T15:10:37.476Z,16.20
2022-10-31T15:15:46.961Z,16.06
2022-10-31T15:21:01.557Z,15.84
2022-10-31T15:26:06.541Z,15.81
2022-10-31T15:31:32.005Z,15.61
2022-10-31T15:36:38.475Z,15.55
2022-10-31T15:41:54.808Z,15.33
2022-10-31T15:47:07.645Z,15.06
2022-10-31T15:52:24.608Z,14.80
2022-10-31T15:57:27.345Z,14.61
2022-10-31T16:02:31.161Z,14.62
2022-10-31T16:07:33.910Z,14.47
2022-10-31T16:12:43.635Z,14.38
2022-10-31T16:17:48.503Z,14.23
2022-10-31T16:22:52.450Z,14.33
2022-10-31T16:28:01.389Z,14.20
2022-10-31T16:33:35.162Z,14.19
2022-10-31T16:38:45.946Z,14.08
2022-10-31T16:44:03.180Z,13.95
2022-10-31T16:49:04.863Z,13.92
2022-10-31T16:54:07.652Z,13.86
2022-10-31T16:59:16.043Z,13.73
2022-10-31T17:04:19.252Z,13.62
2022-10-31T17:09:21.013Z,13.61
2022-10-31T17:14:25.187Z,13.61
2022-10-31T17:19:28.007Z,13.59
2022-10-31T17:24:33.716Z,13.57
2022-10-31T17:29:35.518Z,13.52
2022-10-31T17:34:43.304Z,13.42
2022-10-31T17:39:45.983Z,13.29
2022-10-31T17:44:47.742Z,13.19
2022-10-31T17:49:57.478Z,13.06
2022-10-31T17:55:07.936Z,12.92
2022-10-31T18:00:15.723Z,12.81
2022-10-31T18:05:18.685Z,12.78
2022-10-31T18:10:21.766Z,12.67
2022-10-31T18:15:24.438Z,12.61
2022-10-31T18:20:28.286Z,12.52
2022-10-31T18:25:32.331Z,12.41
2022-10-31T18:30:40.510Z,12.28
2022-10-31T18:35:45.406Z,12.23
2022-10-31T18:40:49.247Z,12.18
2022-10-31T18:45:53.693Z,12.09
2022-10-31T18:56:13.011Z,12.02
2022-10-31T19:01:21.996Z,12.05
2022-10-31T19:06:25.057Z,12.11
2022-10-31T19:11:27.790Z,12.02
2022-10-31T19:16:42.257Z,11.95
2022-10-31T19:22:02.177Z,11.93
2022-10-31T19:27:04.236Z,12.01
2022-10-31T19:32:14.008Z,11.99
2022-10-31T19:37:15.718Z,12.00
2022-10-31T19:42:35.658Z,11.77
2022-10-31T19:47:45.461Z,11.72
2022-10-31T19:52:48.214Z,11.69
2022-10-31T19:58:11.727Z,11.71
2022-10-31T20:03:12.211Z,11.61
2022-10-31T20:08:21.802Z,11.59
2022-10-31T20:13:23.709Z,11.51
2022-10-31T20:18:25.965Z,11.48
2022-10-31T20:23:28.017Z,11.46
2022-10-31T20:28:30.687Z,11.44
2022-10-31T20:33:32.326Z,11.38
2022-10-31T20:38:34.852Z,11.23
2022-10-31T20:43:37.547Z,11.24
2022-10-31T20:48:39.315Z,11.14
2022-10-31T20:53:40.969Z,11.05
2022-10-31T20:58:44.400Z,11.07
2022-10-31T21:03:46.900Z,11.01
2022-10-31T21:08:48.846Z,10.98
2022-10-31T21:13:51.506Z,10.74
2022-10-31T21:18:53.810Z,10.54
2022-10-31T21:23:57.838Z,10.57
2022-10-31T21:29:00.025Z,10.77
2022-10-31T21:34:01.848Z,11.00
2022-10-31T21:39:05.234Z,11.16
2022-10-31T21:44:06.957Z,11.22
2022-10-31T21:49:10.692Z,11.29
2022-10-31T21:54:28.917Z,11.30
2022-10-31T21:59:30.783Z,11.32
2022-10-31T22:04:33.544Z,11.32
2022-10-31T22:09:35.340Z,11.24
2022-10-31T22:14:37.031Z,11.27
2022-10-31T22:19:38.753Z,11.30
2022-10-31T22:24:40.459Z,11.19
2022-10-31T22:29:45.176Z,11.30
2022-10-31T22:34:46.817Z,11.42
2022-10-31T22:39:48.459Z,11.41
2022-10-31T22:44:50.118Z,11.44
2022-10-31T22:49:51.763Z,11.38
2022-10-31T22:54:56.898Z,11.36
2022-10-31T23:00:00.935Z,11.18
2022-10-31T23:05:02.620Z,11.05
2022-10-31T23:10:04.635Z,11.05
2022-10-31T23:15:06.912Z,11.13
2022-10-31T23:20:08.945Z,11.15
2022-10-31T23:25:10.754Z,11.21
2022-10-31T23:30:12.447Z,11.30
2022-10-31T23:35:14.097Z,11.38
2022-10-31T23:40:15.827Z,11.43
2022-10-31T23:45:17.478Z,11.50
2022-10-31T23:50:19.130Z,11.57
2022-10-31T23:55:20.786Z,11.61
